sensor_id;sensor_type;location;lat;lon;timestamp;P1;durP1;ratioP1;P2;durP2;ratioP2
1446;SDS011;717;51.522;7.266;2022-09-09T00:02:08;1.85;;;0.50;;
1446;SDS011;717;51.522;7.266;2022-09-09T00:04:44;2.60;;;0.65;;
1446;SDS011;717;51.522;7.266;2022-09-09T00:07:21;2.88;;;0.45;;
1446;SDS011;717;51.522;7.266;2022-09-09T00:09:59;2.35;;;0.60;;
1446;SDS011;717;51.522;7.266;2022-09-09T00:12:36;1.52;;;0.65;;
1446;SDS011;717;51.522;7.266;2022-09-09T00:15:11;2.72;;;0.88;;
1446;SDS011;717;51.522;7.266;2022-09-09T00:17:41;1.80;;;0.70;;
1446;SDS011;717;51.522;7.266;2022-09-09T00:20:14;1.50;;;0.47;;
1446;SDS011;717;51.522;7.266;2022-09-09T00:22:50;1.17;;;0.70;;
1446;SDS011;717;51.522;7.266;2022-09-09T00:25:27;2.28;;;0.50;;
1446;SDS011;717;51.522;7.266;2022-09-09T00:27:59;1.50;;;0.47;;
1446;SDS011;717;51.522;7.266;2022-09-09T00:30:27;2.00;;;0.50;;
1446;SDS011;717;51.522;7.266;2022-09-09T00:32:58;1.30;;;0.30;;
1446;SDS011;717;51.522;7.266;2022-09-09T00:35:29;1.50;;;0.30;;
1446;SDS011;717;51.522;7.266;2022-09-09T00:38:00;0.80;;;0.40;;
1446;SDS011;717;51.522;7.266;2022-09-09T00:40:32;1.20;;;0.57;;
1446;SDS011;717;51.522;7.266;2022-09-09T00:43:09;0.90;;;0.40;;
1446;SDS011;717;51.522;7.266;2022-09-09T00:48:42;2.35;;;0.88;;
1446;SDS011;717;51.522;7.266;2022-09-09T00:51:17;1.23;;;0.35;;
1446;SDS011;717;51.522;7.266;2022-09-09T00:53:58;2.70;;;0.60;;
1446;SDS011;717;51.522;7.266;2022-09-09T00:56:37;2.17;;;0.65;;
1446;SDS011;717;51.522;7.266;2022-09-09T00:59:12;1.08;;;0.40;;
1446;SDS011;717;51.522;7.266;2022-09-09T01:01:51;2.13;;;0.40;;
1446;SDS011;717;51.522;7.266;2022-09-09T01:04:21;1.45;;;0.47;;
1446;SDS011;717;51.522;7.266;2022-09-09T01:07:00;2.08;;;0.35;;
1446;SDS011;717;51.522;7.266;2022-09-09T01:09:38;2.65;;;0.60;;
1446;SDS011;717;51.522;7.266;2022-09-09T01:12:24;0.93;;;0.30;;
1446;SDS011;717;51.522;7.266;2022-09-09T01:14:57;0.57;;;0.30;;
1446;SDS011;717;51.522;7.266;2022-09-09T01:17:34;1.58;;;0.43;;
1446;SDS011;717;51.522;7.266;2022-09-09T01:20:14;1.65;;;0.43;;
1446;SDS011;717;51.522;7.266;2022-09-09T01:22:44;1.98;;;0.65;;
1446;SDS011;717;51.522;7.266;2022-09-09T01:25:29;0.85;;;0.47;;
1446;SDS011;717;51.522;7.266;2022-09-09T01:28:19;1.65;;;0.70;;
1446;SDS011;717;51.522;7.266;2022-09-09T01:30:51;1.30;;;0.80;;
1446;SDS011;717;51.522;7.266;2022-09-09T01:33:18;1.42;;;0.70;;
1446;SDS011;717;51.522;7.266;2022-09-09T01:35:45;1.77;;;0.73;;
1446;SDS011;717;51.522;7.266;2022-09-09T01:38:16;1.98;;;0.90;;
1446;SDS011;717;51.522;7.266;2022-09-09T01:40:44;1.15;;;0.82;;
1446;SDS011;717;51.522;7.266;2022-09-09T01:43:11;2.65;;;0.90;;
1446;SDS011;717;51.522;7.266;2022-09-09T01:45:39;1.33;;;0.95;;
1446;SDS011;717;51.522;7.266;2022-09-09T01:48:08;2.47;;;1.10;;
1446;SDS011;717;51.522;7.266;2022-09-09T01:50:35;2.80;;;1.15;;
1446;SDS011;717;51.522;7.266;2022-09-09T01:53:02;1.45;;;1.17;;
1446;SDS011;717;51.522;7.266;2022-09-09T01:55:30;2.80;;;1.27;;
1446;SDS011;717;51.522;7.266;2022-09-09T01:58:04;2.97;;;1.20;;
1446;SDS011;717;51.522;7.266;2022-09-09T02:00:45;2.35;;;1.30;;
1446;SDS011;717;51.522;7.266;2022-09-09T02:03:21;3.50;;;1.50;;
1446;SDS011;717;51.522;7.266;2022-09-09T02:05:53;2.67;;;1.50;;
1446;SDS011;717;51.522;7.266;2022-09-09T02:08:26;2.90;;;1.65;;
1446;SDS011;717;51.522;7.266;2022-09-09T02:10:58;2.47;;;1.80;;
1446;SDS011;717;51.522;7.266;2022-09-09T02:13:31;2.17;;;1.33;;
1446;SDS011;717;51.522;7.266;2022-09-09T02:16:03;3.08;;;1.50;;
1446;SDS011;717;51.522;7.266;2022-09-09T02:18:34;3.08;;;1.55;;
1446;SDS011;717;51.522;7.266;2022-09-09T02:21:04;3.53;;;1.60;;
1446;SDS011;717;51.522;7.266;2022-09-09T02:23:32;2.88;;;1.52;;
1446;SDS011;717;51.522;7.266;2022-09-09T02:26:01;4.22;;;1.98;;
1446;SDS011;717;51.522;7.266;2022-09-09T02:28:29;3.25;;;1.73;;
1446;SDS011;717;51.522;7.266;2022-09-09T02:30:59;2.88;;;1.67;;
1446;SDS011;717;51.522;7.266;2022-09-09T02:33:29;2.78;;;1.55;;
1446;SDS011;717;51.522;7.266;2022-09-09T02:36:00;2.92;;;1.55;;
1446;SDS011;717;51.522;7.266;2022-09-09T02:38:32;2.38;;;1.55;;
1446;SDS011;717;51.522;7.266;2022-09-09T02:41:03;2.53;;;1.35;;
1446;SDS011;717;51.522;7.266;2022-09-09T02:43:31;1.77;;;1.30;;
1446;SDS011;717;51.522;7.266;2022-09-09T02:46:01;5.00;;;1.65;;
1446;SDS011;717;51.522;7.266;2022-09-09T02:48:36;2.80;;;1.30;;
1446;SDS011;717;51.522;7.266;2022-09-09T02:51:10;2.50;;;1.60;;
1446;SDS011;717;51.522;7.266;2022-09-09T02:53:43;4.78;;;1.42;;
1446;SDS011;717;51.522;7.266;2022-09-09T02:56:15;2.92;;;1.60;;
1446;SDS011;717;51.522;7.266;2022-09-09T02:58:43;5.07;;;1.60;;
1446;SDS011;717;51.522;7.266;2022-09-09T03:01:11;2.00;;;1.35;;
1446;SDS011;717;51.522;7.266;2022-09-09T03:03:40;4.10;;;1.45;;
1446;SDS011;717;51.522;7.266;2022-09-09T03:06:09;2.80;;;1.35;;
1446;SDS011;717;51.522;7.266;2022-09-09T03:08:36;3.00;;;1.35;;
1446;SDS011;717;51.522;7.266;2022-09-09T03:11:03;3.15;;;1.30;;
1446;SDS011;717;51.522;7.266;2022-09-09T03:13:30;4.00;;;1.63;;
1446;SDS011;717;51.522;7.266;2022-09-09T03:15:57;2.28;;;1.33;;
1446;SDS011;717;51.522;7.266;2022-09-09T03:18:24;3.45;;;1.38;;
1446;SDS011;717;51.522;7.266;2022-09-09T03:20:54;4.03;;;1.38;;
1446;SDS011;717;51.522;7.266;2022-09-09T03:23:21;3.90;;;1.75;;
1446;SDS011;717;51.522;7.266;2022-09-09T03:25:48;2.83;;;1.90;;
1446;SDS011;717;51.522;7.266;2022-09-09T03:28:15;1.60;;;1.17;;
1446;SDS011;717;51.522;7.266;2022-09-09T03:30:42;2.72;;;1.42;;
1446;SDS011;717;51.522;7.266;2022-09-09T03:33:08;2.35;;;1.33;;
1446;SDS011;717;51.522;7.266;2022-09-09T03:35:35;2.33;;;1.23;;
1446;SDS011;717;51.522;7.266;2022-09-09T03:38:03;2.30;;;1.45;;
1446;SDS011;717;51.522;7.266;2022-09-09T03:40:32;2.47;;;1.20;;
1446;SDS011;717;51.522;7.266;2022-09-09T03:43:00;3.08;;;1.33;;
1446;SDS011;717;51.522;7.266;2022-09-09T03:45:26;3.45;;;1.00;;
1446;SDS011;717;51.522;7.266;2022-09-09T03:47:53;3.03;;;1.08;;
1446;SDS011;717;51.522;7.266;2022-09-09T03:50:20;2.15;;;1.05;;
1446;SDS011;717;51.522;7.266;2022-09-09T03:52:46;3.00;;;1.10;;
1446;SDS011;717;51.522;7.266;2022-09-09T03:55:14;4.25;;;1.10;;
1446;SDS011;717;51.522;7.266;2022-09-09T03:57:41;1.77;;;1.05;;
1446;SDS011;717;51.522;7.266;2022-09-09T04:00:08;2.03;;;0.98;;
1446;SDS011;717;51.522;7.266;2022-09-09T04:02:35;3.42;;;1.27;;
1446;SDS011;717;51.522;7.266;2022-09-09T04:05:02;2.13;;;1.10;;
1446;SDS011;717;51.522;7.266;2022-09-09T04:07:31;1.48;;;1.00;;
1446;SDS011;717;51.522;7.266;2022-09-09T04:09:58;3.25;;;1.20;;
1446;SDS011;717;51.522;7.266;2022-09-09T04:12:26;1.45;;;1.00;;
1446;SDS011;717;51.522;7.266;2022-09-09T04:14:52;1.67;;;1.02;;
1446;SDS011;717;51.522;7.266;2022-09-09T04:17:19;3.40;;;1.00;;
1446;SDS011;717;51.522;7.266;2022-09-09T04:19:46;2.75;;;1.20;;
1446;SDS011;717;51.522;7.266;2022-09-09T04:22:13;2.08;;;0.90;;
1446;SDS011;717;51.522;7.266;2022-09-09T04:24:41;3.20;;;1.20;;
1446;SDS011;717;51.522;7.266;2022-09-09T04:27:07;3.45;;;1.30;;
1446;SDS011;717;51.522;7.266;2022-09-09T04:29:35;3.08;;;1.15;;
1446;SDS011;717;51.522;7.266;2022-09-09T04:32:02;2.30;;;1.20;;
1446;SDS011;717;51.522;7.266;2022-09-09T04:34:29;3.47;;;1.10;;
1446;SDS011;717;51.522;7.266;2022-09-09T04:36:56;2.60;;;1.10;;
1446;SDS011;717;51.522;7.266;2022-09-09T04:39:23;5.25;;;1.52;;
1446;SDS011;717;51.522;7.266;2022-09-09T04:41:50;5.22;;;1.30;;
1446;SDS011;717;51.522;7.266;2022-09-09T04:44:18;4.97;;;1.65;;
1446;SDS011;717;51.522;7.266;2022-09-09T04:46:46;2.20;;;1.05;;
1446;SDS011;717;51.522;7.266;2022-09-09T04:49:13;2.03;;;1.20;;
1446;SDS011;717;51.522;7.266;2022-09-09T04:51:40;3.05;;;1.25;;
1446;SDS011;717;51.522;7.266;2022-09-09T04:54:07;5.05;;;1.25;;
1446;SDS011;717;51.522;7.266;2022-09-09T04:56:34;2.75;;;0.98;;
1446;SDS011;717;51.522;7.266;2022-09-09T04:59:01;5.03;;;1.20;;
1446;SDS011;717;51.522;7.266;2022-09-09T05:01:28;3.58;;;1.13;;
1446;SDS011;717;51.522;7.266;2022-09-09T05:03:56;1.98;;;1.08;;
1446;SDS011;717;51.522;7.266;2022-09-09T05:06:23;2.13;;;1.10;;
1446;SDS011;717;51.522;7.266;2022-09-09T05:08:50;2.67;;;1.30;;
1446;SDS011;717;51.522;7.266;2022-09-09T05:11:18;3.75;;;1.05;;
1446;SDS011;717;51.522;7.266;2022-09-09T05:13:47;3.25;;;1.30;;
1446;SDS011;717;51.522;7.266;2022-09-09T05:16:15;5.45;;;1.42;;
1446;SDS011;717;51.522;7.266;2022-09-09T05:18:42;2.13;;;1.30;;
1446;SDS011;717;51.522;7.266;2022-09-09T05:21:13;3.47;;;1.55;;
1446;SDS011;717;51.522;7.266;2022-09-09T05:23:41;4.15;;;1.50;;
1446;SDS011;717;51.522;7.266;2022-09-09T05:26:09;3.08;;;1.40;;
1446;SDS011;717;51.522;7.266;2022-09-09T05:28:39;2.83;;;1.35;;
1446;SDS011;717;51.522;7.266;2022-09-09T05:31:07;3.33;;;1.38;;
1446;SDS011;717;51.522;7.266;2022-09-09T05:33:36;3.22;;;1.23;;
1446;SDS011;717;51.522;7.266;2022-09-09T05:36:06;4.80;;;1.63;;
1446;SDS011;717;51.522;7.266;2022-09-09T05:38:37;3.13;;;1.40;;
1446;SDS011;717;51.522;7.266;2022-09-09T05:41:04;5.53;;;2.15;;
1446;SDS011;717;51.522;7.266;2022-09-09T05:43:32;5.90;;;2.20;;
1446;SDS011;717;51.522;7.266;2022-09-09T05:46:01;6.15;;;2.85;;
1446;SDS011;717;51.522;7.266;2022-09-09T05:48:29;2.95;;;1.77;;
1446;SDS011;717;51.522;7.266;2022-09-09T05:50:57;3.33;;;1.60;;
1446;SDS011;717;51.522;7.266;2022-09-09T05:53:24;3.35;;;1.40;;
1446;SDS011;717;51.522;7.266;2022-09-09T05:55:58;4.32;;;1.60;;
1446;SDS011;717;51.522;7.266;2022-09-09T05:58:28;5.53;;;1.80;;
1446;SDS011;717;51.522;7.266;2022-09-09T06:01:00;5.38;;;1.85;;
1446;SDS011;717;51.522;7.266;2022-09-09T06:03:28;3.55;;;1.42;;
1446;SDS011;717;51.522;7.266;2022-09-09T06:05:58;3.47;;;1.50;;
1446;SDS011;717;51.522;7.266;2022-09-09T06:08:25;3.60;;;1.38;;
1446;SDS011;717;51.522;7.266;2022-09-09T06:10:52;4.43;;;1.52;;
1446;SDS011;717;51.522;7.266;2022-09-09T06:13:20;3.40;;;1.40;;
1446;SDS011;717;51.522;7.266;2022-09-09T06:15:50;3.40;;;1.52;;
1446;SDS011;717;51.522;7.266;2022-09-09T06:18:17;4.70;;;1.77;;
1446;SDS011;717;51.522;7.266;2022-09-09T06:20:52;3.83;;;1.67;;
1446;SDS011;717;51.522;7.266;2022-09-09T06:23:20;2.65;;;1.30;;
1446;SDS011;717;51.522;7.266;2022-09-09T06:25:47;4.22;;;1.55;;
1446;SDS011;717;51.522;7.266;2022-09-09T06:28:14;4.55;;;1.88;;
1446;SDS011;717;51.522;7.266;2022-09-09T06:30:42;4.78;;;1.58;;
1446;SDS011;717;51.522;7.266;2022-09-09T06:33:09;5.30;;;1.40;;
1446;SDS011;717;51.522;7.266;2022-09-09T06:35:36;4.20;;;1.42;;
1446;SDS011;717;51.522;7.266;2022-09-09T06:38:03;3.88;;;1.23;;
1446;SDS011;717;51.522;7.266;2022-09-09T06:40:30;3.97;;;1.42;;
1446;SDS011;717;51.522;7.266;2022-09-09T06:42:59;4.72;;;1.52;;
1446;SDS011;717;51.522;7.266;2022-09-09T06:45:26;4.00;;;1.58;;
1446;SDS011;717;51.522;7.266;2022-09-09T06:47:55;3.58;;;1.35;;
1446;SDS011;717;51.522;7.266;2022-09-09T06:50:22;3.78;;;1.25;;
1446;SDS011;717;51.522;7.266;2022-09-09T06:52:49;6.05;;;1.48;;
1446;SDS011;717;51.522;7.266;2022-09-09T06:55:18;3.58;;;1.35;;
1446;SDS011;717;51.522;7.266;2022-09-09T06:57:45;4.55;;;1.30;;
1446;SDS011;717;51.522;7.266;2022-09-09T07:00:13;5.13;;;1.55;;
1446;SDS011;717;51.522;7.266;2022-09-09T07:02:40;3.33;;;1.10;;
1446;SDS011;717;51.522;7.266;2022-09-09T07:05:08;6.47;;;1.73;;
1446;SDS011;717;51.522;7.266;2022-09-09T07:07:35;3.78;;;1.20;;
1446;SDS011;717;51.522;7.266;2022-09-09T07:10:02;4.97;;;1.58;;
1446;SDS011;717;51.522;7.266;2022-09-09T07:12:30;5.03;;;1.48;;
1446;SDS011;717;51.522;7.266;2022-09-09T07:14:57;3.65;;;1.35;;
1446;SDS011;717;51.522;7.266;2022-09-09T07:17:23;2.88;;;1.10;;
1446;SDS011;717;51.522;7.266;2022-09-09T07:19:52;6.03;;;1.15;;
1446;SDS011;717;51.522;7.266;2022-09-09T07:22:20;1.67;;;1.02;;
1446;SDS011;717;51.522;7.266;2022-09-09T07:24:47;3.13;;;1.15;;
1446;SDS011;717;51.522;7.266;2022-09-09T07:27:16;4.03;;;1.10;;
1446;SDS011;717;51.522;7.266;2022-09-09T07:29:43;3.85;;;1.10;;
1446;SDS011;717;51.522;7.266;2022-09-09T07:32:10;2.35;;;1.15;;
1446;SDS011;717;51.522;7.266;2022-09-09T07:34:37;2.75;;;1.13;;
1446;SDS011;717;51.522;7.266;2022-09-09T07:37:04;3.00;;;1.00;;
1446;SDS011;717;51.522;7.266;2022-09-09T07:39:32;5.03;;;1.02;;
1446;SDS011;717;51.522;7.266;2022-09-09T07:41:59;2.63;;;0.95;;
1446;SDS011;717;51.522;7.266;2022-09-09T07:44:26;6.05;;;1.45;;
1446;SDS011;717;51.522;7.266;2022-09-09T07:46:53;3.45;;;1.05;;
1446;SDS011;717;51.522;7.266;2022-09-09T07:49:19;2.53;;;0.85;;
1446;SDS011;717;51.522;7.266;2022-09-09T07:51:46;1.52;;;0.70;;
1446;SDS011;717;51.522;7.266;2022-09-09T07:54:14;3.50;;;0.85;;
1446;SDS011;717;51.522;7.266;2022-09-09T07:56:46;4.15;;;0.85;;
1446;SDS011;717;51.522;7.266;2022-09-09T07:59:14;2.10;;;0.73;;
1446;SDS011;717;51.522;7.266;2022-09-09T08:01:42;2.15;;;0.70;;
1446;SDS011;717;51.522;7.266;2022-09-09T08:04:11;3.50;;;1.00;;
1446;SDS011;717;51.522;7.266;2022-09-09T08:06:40;4.30;;;0.90;;
1446;SDS011;717;51.522;7.266;2022-09-09T08:09:08;5.00;;;0.70;;
1446;SDS011;717;51.522;7.266;2022-09-09T08:11:36;3.42;;;0.85;;
1446;SDS011;717;51.522;7.266;2022-09-09T08:14:06;2.63;;;0.80;;
1446;SDS011;717;51.522;7.266;2022-09-09T08:16:35;3.35;;;0.90;;
1446;SDS011;717;51.522;7.266;2022-09-09T08:19:03;2.28;;;0.63;;
1446;SDS011;717;51.522;7.266;2022-09-09T08:21:32;3.83;;;0.90;;
1446;SDS011;717;51.522;7.266;2022-09-09T08:24:00;3.22;;;0.80;;
1446;SDS011;717;51.522;7.266;2022-09-09T08:26:28;4.40;;;1.00;;
1446;SDS011;717;51.522;7.266;2022-09-09T08:29:00;2.08;;;0.98;;
1446;SDS011;717;51.522;7.266;2022-09-09T08:31:31;3.20;;;1.10;;
1446;SDS011;717;51.522;7.266;2022-09-09T08:33:58;3.40;;;1.10;;
1446;SDS011;717;51.522;7.266;2022-09-09T08:36:26;3.22;;;0.90;;
1446;SDS011;717;51.522;7.266;2022-09-09T08:38:55;3.20;;;0.77;;
1446;SDS011;717;51.522;7.266;2022-09-09T08:44:13;3.08;;;0.90;;
1446;SDS011;717;51.522;7.266;2022-09-09T08:46:49;3.65;;;0.88;;
1446;SDS011;717;51.522;7.266;2022-09-09T08:52:22;3.92;;;1.40;;
1446;SDS011;717;51.522;7.266;2022-09-09T08:54:53;3.38;;;1.38;;
1446;SDS011;717;51.522;7.266;2022-09-09T08:57:29;3.13;;;1.08;;
1446;SDS011;717;51.522;7.266;2022-09-09T08:59:58;2.97;;;1.10;;
1446;SDS011;717;51.522;7.266;2022-09-09T09:02:27;5.47;;;0.95;;
1446;SDS011;717;51.522;7.266;2022-09-09T09:05:06;3.03;;;1.00;;
1446;SDS011;717;51.522;7.266;2022-09-09T09:07:45;5.97;;;1.35;;
1446;SDS011;717;51.522;7.266;2022-09-09T09:10:23;3.33;;;1.15;;
1446;SDS011;717;51.522;7.266;2022-09-09T09:12:59;4.90;;;1.40;;
1446;SDS011;717;51.522;7.266;2022-09-09T09:15:28;2.25;;;1.00;;
1446;SDS011;717;51.522;7.266;2022-09-09T09:18:03;4.82;;;1.30;;
1446;SDS011;717;51.522;7.266;2022-09-09T09:20:32;3.85;;;1.20;;
1446;SDS011;717;51.522;7.266;2022-09-09T09:23:06;3.90;;;1.33;;
1446;SDS011;717;51.522;7.266;2022-09-09T09:25:43;2.83;;;1.10;;
1446;SDS011;717;51.522;7.266;2022-09-09T09:28:11;5.20;;;1.42;;
1446;SDS011;717;51.522;7.266;2022-09-09T09:30:44;5.03;;;1.40;;
1446;SDS011;717;51.522;7.266;2022-09-09T09:33:18;1.95;;;1.02;;
1446;SDS011;717;51.522;7.266;2022-09-09T09:35:48;4.88;;;1.38;;
1446;SDS011;717;51.522;7.266;2022-09-09T09:38:16;3.05;;;1.17;;
1446;SDS011;717;51.522;7.266;2022-09-09T09:40:50;3.55;;;1.30;;
1446;SDS011;717;51.522;7.266;2022-09-09T09:43:21;4.93;;;1.15;;
1446;SDS011;717;51.522;7.266;2022-09-09T09:45:51;4.18;;;1.20;;
1446;SDS011;717;51.522;7.266;2022-09-09T09:48:19;4.78;;;1.35;;
1446;SDS011;717;51.522;7.266;2022-09-09T09:50:46;2.38;;;0.90;;
1446;SDS011;717;51.522;7.266;2022-09-09T09:53:17;4.78;;;1.30;;
1446;SDS011;717;51.522;7.266;2022-09-09T09:55:50;4.20;;;1.10;;
1446;SDS011;717;51.522;7.266;2022-09-09T09:58:22;11.45;;;1.23;;
1446;SDS011;717;51.522;7.266;2022-09-09T10:00:51;4.35;;;0.95;;
1446;SDS011;717;51.522;7.266;2022-09-09T10:03:24;4.05;;;1.00;;
1446;SDS011;717;51.522;7.266;2022-09-09T10:05:53;4.22;;;1.10;;
1446;SDS011;717;51.522;7.266;2022-09-09T10:08:21;4.95;;;0.70;;
1446;SDS011;717;51.522;7.266;2022-09-09T10:10:51;4.93;;;1.02;;
1446;SDS011;717;51.522;7.266;2022-09-09T10:13:29;4.38;;;1.05;;
1446;SDS011;717;51.522;7.266;2022-09-09T10:16:07;3.15;;;0.90;;
1446;SDS011;717;51.522;7.266;2022-09-09T10:18:49;3.63;;;1.13;;
1446;SDS011;717;51.522;7.266;2022-09-09T10:21:28;4.57;;;1.30;;
1446;SDS011;717;51.522;7.266;2022-09-09T10:24:10;4.78;;;1.08;;
1446;SDS011;717;51.522;7.266;2022-09-09T10:26:51;3.70;;;0.82;;
1446;SDS011;717;51.522;7.266;2022-09-09T10:32:24;3.35;;;0.65;;
1446;SDS011;717;51.522;7.266;2022-09-09T10:35:04;2.53;;;0.88;;
1446;SDS011;717;51.522;7.266;2022-09-09T10:37:41;3.05;;;0.65;;
1446;SDS011;717;51.522;7.266;2022-09-09T10:40:22;3.80;;;0.90;;
1446;SDS011;717;51.522;7.266;2022-09-09T10:43:00;3.88;;;0.93;;
1446;SDS011;717;51.522;7.266;2022-09-09T10:45:36;2.75;;;0.82;;
1446;SDS011;717;51.522;7.266;2022-09-09T10:48:20;2.28;;;0.60;;
1446;SDS011;717;51.522;7.266;2022-09-09T10:51:00;1.92;;;0.70;;
1446;SDS011;717;51.522;7.266;2022-09-09T10:53:37;3.30;;;0.63;;
1446;SDS011;717;51.522;7.266;2022-09-09T10:56:12;3.38;;;0.68;;
1446;SDS011;717;51.522;7.266;2022-09-09T10:58:43;2.80;;;0.82;;
1446;SDS011;717;51.522;7.266;2022-09-09T11:01:15;2.72;;;0.65;;
1446;SDS011;717;51.522;7.266;2022-09-09T11:03:49;1.80;;;0.65;;
1446;SDS011;717;51.522;7.266;2022-09-09T11:06:22;4.13;;;0.70;;
1446;SDS011;717;51.522;7.266;2022-09-09T11:08:54;2.80;;;0.77;;
1446;SDS011;717;51.522;7.266;2022-09-09T11:11:27;2.03;;;0.70;;
1446;SDS011;717;51.522;7.266;2022-09-09T11:13:59;1.30;;;0.50;;
1446;SDS011;717;51.522;7.266;2022-09-09T11:16:33;1.17;;;0.32;;
1446;SDS011;717;51.522;7.266;2022-09-09T11:19:09;1.55;;;0.57;;
1446;SDS011;717;51.522;7.266;2022-09-09T11:21:43;1.92;;;0.40;;
1446;SDS011;717;51.522;7.266;2022-09-09T11:24:12;2.30;;;0.50;;
1446;SDS011;717;51.522;7.266;2022-09-09T11:26:44;1.80;;;1.02;;
1446;SDS011;717;51.522;7.266;2022-09-09T11:29:38;2.28;;;0.45;;
1446;SDS011;717;51.522;7.266;2022-09-09T11:32:20;4.13;;;0.60;;
1446;SDS011;717;51.522;7.266;2022-09-09T11:34:56;3.70;;;0.65;;
1446;SDS011;717;51.522;7.266;2022-09-09T11:37:41;1.65;;;0.60;;
1446;SDS011;717;51.522;7.266;2022-09-09T11:40:21;2.08;;;0.60;;
1446;SDS011;717;51.522;7.266;2022-09-09T11:42:59;4.78;;;0.68;;
1446;SDS011;717;51.522;7.266;2022-09-09T11:45:29;1.98;;;0.50;;
1446;SDS011;717;51.522;7.266;2022-09-09T11:47:58;2.10;;;0.60;;
1446;SDS011;717;51.522;7.266;2022-09-09T11:50:30;1.77;;;0.50;;
1446;SDS011;717;51.522;7.266;2022-09-09T11:53:04;1.15;;;0.50;;
1446;SDS011;717;51.522;7.266;2022-09-09T11:55:46;2.22;;;0.60;;
1446;SDS011;717;51.522;7.266;2022-09-09T11:58:16;2.83;;;0.70;;
1446;SDS011;717;51.522;7.266;2022-09-09T12:00:45;2.15;;;0.77;;
1446;SDS011;717;51.522;7.266;2022-09-09T12:06:08;2.70;;;0.60;;
1446;SDS011;717;51.522;7.266;2022-09-09T12:08:40;2.45;;;0.50;;
1446;SDS011;717;51.522;7.266;2022-09-09T12:11:09;1.13;;;0.45;;
1446;SDS011;717;51.522;7.266;2022-09-09T12:13:36;1.38;;;0.40;;
1446;SDS011;717;51.522;7.266;2022-09-09T12:16:03;2.28;;;0.85;;
1446;SDS011;717;51.522;7.266;2022-09-09T12:18:32;2.13;;;0.40;;
1446;SDS011;717;51.522;7.266;2022-09-09T12:21:02;2.03;;;0.68;;
1446;SDS011;717;51.522;7.266;2022-09-09T12:23:38;1.77;;;0.90;;
1446;SDS011;717;51.522;7.266;2022-09-09T12:26:16;2.20;;;0.60;;
1446;SDS011;717;51.522;7.266;2022-09-09T12:28:54;1.75;;;0.45;;
1446;SDS011;717;51.522;7.266;2022-09-09T12:31:29;1.35;;;0.60;;
1446;SDS011;717;51.522;7.266;2022-09-09T12:34:09;3.22;;;0.52;;
1446;SDS011;717;51.522;7.266;2022-09-09T12:36:39;3.10;;;0.77;;
1446;SDS011;717;51.522;7.266;2022-09-09T12:39:15;2.65;;;0.60;;
1446;SDS011;717;51.522;7.266;2022-09-09T12:41:52;1.67;;;0.52;;
1446;SDS011;717;51.522;7.266;2022-09-09T12:44:22;1.23;;;0.55;;
1446;SDS011;717;51.522;7.266;2022-09-09T12:46:49;1.92;;;0.50;;
1446;SDS011;717;51.522;7.266;2022-09-09T12:49:25;3.42;;;0.60;;
1446;SDS011;717;51.522;7.266;2022-09-09T12:51:56;1.75;;;0.40;;
1446;SDS011;717;51.522;7.266;2022-09-09T12:54:24;3.88;;;0.50;;
1446;SDS011;717;51.522;7.266;2022-09-09T12:56:52;1.42;;;0.65;;
1446;SDS011;717;51.522;7.266;2022-09-09T12:59:22;1.83;;;0.60;;
1446;SDS011;717;51.522;7.266;2022-09-09T13:01:57;1.60;;;0.60;;
1446;SDS011;717;51.522;7.266;2022-09-09T13:04:24;2.30;;;0.50;;
1446;SDS011;717;51.522;7.266;2022-09-09T13:06:51;1.50;;;0.40;;
1446;SDS011;717;51.522;7.266;2022-09-09T13:09:18;1.77;;;0.52;;
1446;SDS011;717;51.522;7.266;2022-09-09T13:11:48;2.55;;;0.60;;
1446;SDS011;717;51.522;7.266;2022-09-09T13:14:18;1.77;;;0.60;;
1446;SDS011;717;51.522;7.266;2022-09-09T13:16:54;2.58;;;0.65;;
1446;SDS011;717;51.522;7.266;2022-09-09T13:19:22;1.60;;;0.40;;
1446;SDS011;717;51.522;7.266;2022-09-09T13:21:52;1.65;;;0.45;;
1446;SDS011;717;51.522;7.266;2022-09-09T13:24:27;3.20;;;0.57;;
1446;SDS011;717;51.522;7.266;2022-09-09T13:26:58;1.80;;;0.45;;
1446;SDS011;717;51.522;7.266;2022-09-09T13:29:27;3.38;;;0.50;;
1446;SDS011;717;51.522;7.266;2022-09-09T13:32:02;3.35;;;0.60;;
1446;SDS011;717;51.522;7.266;2022-09-09T13:34:31;2.00;;;0.47;;
1446;SDS011;717;51.522;7.266;2022-09-09T13:37:00;3.72;;;0.77;;
1446;SDS011;717;51.522;7.266;2022-09-09T13:39:30;1.95;;;0.70;;
1446;SDS011;717;51.522;7.266;2022-09-09T13:42:00;1.88;;;0.38;;
1446;SDS011;717;51.522;7.266;2022-09-09T13:44:30;1.58;;;0.55;;
1446;SDS011;717;51.522;7.266;2022-09-09T13:47:01;1.58;;;0.47;;
1446;SDS011;717;51.522;7.266;2022-09-09T13:49:30;1.88;;;0.65;;
1446;SDS011;717;51.522;7.266;2022-09-09T13:52:05;1.92;;;0.50;;
1446;SDS011;717;51.522;7.266;2022-09-09T13:54:36;3.72;;;0.68;;
1446;SDS011;717;51.522;7.266;2022-09-09T13:57:04;2.88;;;0.88;;
1446;SDS011;717;51.522;7.266;2022-09-09T13:59:31;2.63;;;0.88;;
1446;SDS011;717;51.522;7.266;2022-09-09T14:01:58;2.35;;;0.80;;
1446;SDS011;717;51.522;7.266;2022-09-09T14:04:26;2.80;;;0.65;;
1446;SDS011;717;51.522;7.266;2022-09-09T14:06:54;2.20;;;1.00;;
1446;SDS011;717;51.522;7.266;2022-09-09T14:09:21;3.65;;;0.95;;
1446;SDS011;717;51.522;7.266;2022-09-09T14:11:48;1.65;;;0.90;;
1446;SDS011;717;51.522;7.266;2022-09-09T14:14:16;2.67;;;0.98;;
1446;SDS011;717;51.522;7.266;2022-09-09T14:16:43;2.72;;;1.13;;
1446;SDS011;717;51.522;7.266;2022-09-09T14:19:09;4.05;;;1.20;;
1446;SDS011;717;51.522;7.266;2022-09-09T14:21:36;3.03;;;0.93;;
1446;SDS011;717;51.522;7.266;2022-09-09T14:24:04;1.27;;;0.73;;
1446;SDS011;717;51.522;7.266;2022-09-09T14:26:31;3.80;;;0.98;;
1446;SDS011;717;51.522;7.266;2022-09-09T14:28:57;2.90;;;1.00;;
1446;SDS011;717;51.522;7.266;2022-09-09T14:31:27;3.97;;;1.05;;
1446;SDS011;717;51.522;7.266;2022-09-09T14:33:53;3.08;;;1.00;;
1446;SDS011;717;51.522;7.266;2022-09-09T14:36:20;1.55;;;0.90;;
1446;SDS011;717;51.522;7.266;2022-09-09T14:38:47;3.20;;;0.88;;
1446;SDS011;717;51.522;7.266;2022-09-09T14:41:15;2.95;;;0.82;;
1446;SDS011;717;51.522;7.266;2022-09-09T14:43:43;2.50;;;0.90;;
1446;SDS011;717;51.522;7.266;2022-09-09T14:46:10;3.05;;;1.00;;
1446;SDS011;717;51.522;7.266;2022-09-09T14:48:40;1.83;;;0.70;;
1446;SDS011;717;51.522;7.266;2022-09-09T14:51:09;2.75;;;0.95;;
1446;SDS011;717;51.522;7.266;2022-09-09T14:53:37;3.13;;;0.93;;
1446;SDS011;717;51.522;7.266;2022-09-09T14:56:05;3.75;;;1.00;;
1446;SDS011;717;51.522;7.266;2022-09-09T14:58:33;3.08;;;0.88;;
1446;SDS011;717;51.522;7.266;2022-09-09T15:01:04;3.97;;;0.80;;
1446;SDS011;717;51.522;7.266;2022-09-09T15:03:31;2.45;;;1.02;;
1446;SDS011;717;51.522;7.266;2022-09-09T15:06:05;2.53;;;0.98;;
1446;SDS011;717;51.522;7.266;2022-09-09T15:08:33;4.13;;;0.93;;
1446;SDS011;717;51.522;7.266;2022-09-09T15:11:00;1.85;;;0.70;;
1446;SDS011;717;51.522;7.266;2022-09-09T15:13:28;1.58;;;0.70;;
1446;SDS011;717;51.522;7.266;2022-09-09T15:15:54;4.00;;;1.00;;
1446;SDS011;717;51.522;7.266;2022-09-09T15:18:22;2.00;;;0.77;;
1446;SDS011;717;51.522;7.266;2022-09-09T15:20:48;1.70;;;0.93;;
1446;SDS011;717;51.522;7.266;2022-09-09T15:23:17;2.70;;;0.88;;
1446;SDS011;717;51.522;7.266;2022-09-09T15:25:50;4.25;;;1.00;;
1446;SDS011;717;51.522;7.266;2022-09-09T15:28:18;5.53;;;1.70;;
1446;SDS011;717;51.522;7.266;2022-09-09T15:30:46;3.33;;;1.42;;
1446;SDS011;717;51.522;7.266;2022-09-09T15:33:14;4.18;;;1.00;;
1446;SDS011;717;51.522;7.266;2022-09-09T15:35:41;1.52;;;0.77;;
1446;SDS011;717;51.522;7.266;2022-09-09T15:38:08;3.00;;;0.82;;
1446;SDS011;717;51.522;7.266;2022-09-09T15:40:36;2.45;;;0.85;;
1446;SDS011;717;51.522;7.266;2022-09-09T15:43:02;2.92;;;0.60;;
1446;SDS011;717;51.522;7.266;2022-09-09T15:45:31;2.10;;;0.77;;
1446;SDS011;717;51.522;7.266;2022-09-09T15:47:58;1.90;;;0.60;;
1446;SDS011;717;51.522;7.266;2022-09-09T15:50:25;0.68;;;0.50;;
1446;SDS011;717;51.522;7.266;2022-09-09T15:52:52;0.52;;;0.40;;
1446;SDS011;717;51.522;7.266;2022-09-09T15:55:19;2.42;;;0.60;;
1446;SDS011;717;51.522;7.266;2022-09-09T15:57:47;1.45;;;0.38;;
1446;SDS011;717;51.522;7.266;2022-09-09T16:00:14;3.22;;;0.60;;
1446;SDS011;717;51.522;7.266;2022-09-09T16:02:41;1.33;;;0.43;;
1446;SDS011;717;51.522;7.266;2022-09-09T16:05:08;1.13;;;0.50;;